sensor_id;sensor_type;location;lat;lon;timestamp;P1;durP1;ratioP1;P2;durP2;ratioP2
10659;SDS011;5378;53.206;13.316;2023-02-15T00:02:01;43.93;;;13.47;;
10659;SDS011;5378;53.206;13.316;2023-02-15T00:04:49;37.07;;;13.13;;
10659;SDS011;5378;53.206;13.316;2023-02-15T00:07:36;41.07;;;13.37;;
10659;SDS011;5378;53.206;13.316;2023-02-15T00:10:23;37.67;;;14.90;;
10659;SDS011;5378;53.206;13.316;2023-02-15T00:13:10;42.40;;;13.30;;
10659;SDS011;5378;53.206;13.316;2023-02-15T00:16:00;39.50;;;12.67;;
10659;SDS011;5378;53.206;13.316;2023-02-15T00:18:51;50.33;;;15.97;;
10659;SDS011;5378;53.206;13.316;2023-02-15T00:21:39;39.87;;;14.30;;
10659;SDS011;5378;53.206;13.316;2023-02-15T00:24:26;41.17;;;14.93;;
10659;SDS011;5378;53.206;13.316;2023-02-15T00:27:13;35.53;;;13.83;;
10659;SDS011;5378;53.206;13.316;2023-02-15T00:30:00;43.53;;;15.83;;
10659;SDS011;5378;53.206;13.316;2023-02-15T00:32:47;34.10;;;10.90;;
10659;SDS011;5378;53.206;13.316;2023-02-15T00:35:36;42.63;;;13.40;;
10659;SDS011;5378;53.206;13.316;2023-02-15T00:38:23;36.80;;;13.70;;
10659;SDS011;5378;53.206;13.316;2023-02-15T00:41:10;43.20;;;13.73;;
10659;SDS011;5378;53.206;13.316;2023-02-15T00:43:57;42.53;;;14.07;;
10659;SDS011;5378;53.206;13.316;2023-02-15T00:46:44;49.40;;;14.33;;
10659;SDS011;5378;53.206;13.316;2023-02-15T00:49:31;41.00;;;12.43;;
10659;SDS011;5378;53.206;13.316;2023-02-15T00:52:20;47.17;;;13.33;;
10659;SDS011;5378;53.206;13.316;2023-02-15T00:55:07;40.40;;;13.53;;
10659;SDS011;5378;53.206;13.316;2023-02-15T00:57:54;50.30;;;12.57;;
10659;SDS011;5378;53.206;13.316;2023-02-15T01:00:42;36.83;;;13.20;;
10659;SDS011;5378;53.206;13.316;2023-02-15T01:03:31;35.57;;;12.27;;
10659;SDS011;5378;53.206;13.316;2023-02-15T01:06:18;40.83;;;14.27;;
10659;SDS011;5378;53.206;13.316;2023-02-15T01:09:07;33.70;;;12.10;;
10659;SDS011;5378;53.206;13.316;2023-02-15T01:11:54;37.37;;;14.17;;
10659;SDS011;5378;53.206;13.316;2023-02-15T01:14:44;40.20;;;13.40;;
10659;SDS011;5378;53.206;13.316;2023-02-15T01:17:31;44.43;;;14.30;;
10659;SDS011;5378;53.206;13.316;2023-02-15T01:20:21;36.90;;;14.80;;
10659;SDS011;5378;53.206;13.316;2023-02-15T01:23:09;28.87;;;11.57;;
10659;SDS011;5378;53.206;13.316;2023-02-15T01:26:02;40.33;;;11.57;;
10659;SDS011;5378;53.206;13.316;2023-02-15T01:28:49;37.33;;;11.20;;
10659;SDS011;5378;53.206;13.316;2023-02-15T01:31:37;49.60;;;13.70;;
10659;SDS011;5378;53.206;13.316;2023-02-15T01:34:24;46.10;;;14.10;;
10659;SDS011;5378;53.206;13.316;2023-02-15T01:37:11;39.57;;;13.33;;
10659;SDS011;5378;53.206;13.316;2023-02-15T01:39:59;38.83;;;12.80;;
10659;SDS011;5378;53.206;13.316;2023-02-15T01:42:51;54.93;;;14.13;;
10659;SDS011;5378;53.206;13.316;2023-02-15T01:45:38;47.57;;;14.30;;
10659;SDS011;5378;53.206;13.316;2023-02-15T01:48:28;39.80;;;12.40;;
10659;SDS011;5378;53.206;13.316;2023-02-15T01:51:16;42.77;;;12.70;;
10659;SDS011;5378;53.206;13.316;2023-02-15T01:54:09;37.57;;;10.70;;
10659;SDS011;5378;53.206;13.316;2023-02-15T01:57:03;41.60;;;13.03;;
10659;SDS011;5378;53.206;13.316;2023-02-15T01:59:56;34.20;;;11.83;;
10659;SDS011;5378;53.206;13.316;2023-02-15T02:02:57;34.80;;;12.70;;
10659;SDS011;5378;53.206;13.316;2023-02-15T02:05:44;39.17;;;13.03;;
10659;SDS011;5378;53.206;13.316;2023-02-15T02:08:31;47.00;;;12.20;;
10659;SDS011;5378;53.206;13.316;2023-02-15T02:11:18;45.40;;;13.30;;
10659;SDS011;5378;53.206;13.316;2023-02-15T02:14:05;43.60;;;11.67;;
10659;SDS011;5378;53.206;13.316;2023-02-15T02:16:56;39.07;;;13.37;;
10659;SDS011;5378;53.206;13.316;2023-02-15T02:20:02;40.20;;;14.03;;
10659;SDS011;5378;53.206;13.316;2023-02-15T02:23:07;39.10;;;14.00;;
10659;SDS011;5378;53.206;13.316;2023-02-15T02:26:24;37.07;;;12.47;;
10659;SDS011;5378;53.206;13.316;2023-02-15T02:33:21;39.53;;;13.13;;
10659;SDS011;5378;53.206;13.316;2023-02-15T02:36:34;38.90;;;12.40;;
10659;SDS011;5378;53.206;13.316;2023-02-15T02:39:29;41.80;;;14.67;;
10659;SDS011;5378;53.206;13.316;2023-02-15T02:42:25;51.00;;;15.63;;
10659;SDS011;5378;53.206;13.316;2023-02-15T02:45:20;29.67;;;10.40;;
10659;SDS011;5378;53.206;13.316;2023-02-15T02:48:12;34.07;;;11.93;;
10659;SDS011;5378;53.206;13.316;2023-02-15T02:51:05;37.23;;;13.20;;
10659;SDS011;5378;53.206;13.316;2023-02-15T02:53:53;36.00;;;13.70;;
10659;SDS011;5378;53.206;13.316;2023-02-15T02:56:43;40.10;;;12.40;;
10659;SDS011;5378;53.206;13.316;2023-02-15T02:59:34;44.07;;;15.00;;
10659;SDS011;5378;53.206;13.316;2023-02-15T03:02:25;34.20;;;11.97;;
10659;SDS011;5378;53.206;13.316;2023-02-15T03:05:17;46.83;;;12.40;;
10659;SDS011;5378;53.206;13.316;2023-02-15T03:08:09;35.53;;;12.90;;
10659;SDS011;5378;53.206;13.316;2023-02-15T03:10:58;46.60;;;13.70;;
10659;SDS011;5378;53.206;13.316;2023-02-15T03:13:48;41.50;;;13.13;;
10659;SDS011;5378;53.206;13.316;2023-02-15T03:16:38;32.03;;;11.67;;
10659;SDS011;5378;53.206;13.316;2023-02-15T03:19:31;38.93;;;11.77;;
10659;SDS011;5378;53.206;13.316;2023-02-15T03:22:24;48.20;;;13.03;;
10659;SDS011;5378;53.206;13.316;2023-02-15T03:25:19;34.70;;;11.93;;
10659;SDS011;5378;53.206;13.316;2023-02-15T03:28:09;30.13;;;11.10;;
10659;SDS011;5378;53.206;13.316;2023-02-15T03:30:59;41.97;;;13.50;;
10659;SDS011;5378;53.206;13.316;2023-02-15T03:33:50;33.87;;;12.83;;
10659;SDS011;5378;53.206;13.316;2023-02-15T03:36:42;37.73;;;12.93;;
10659;SDS011;5378;53.206;13.316;2023-02-15T03:39:33;37.53;;;13.03;;
10659;SDS011;5378;53.206;13.316;2023-02-15T03:42:26;40.67;;;12.77;;
10659;SDS011;5378;53.206;13.316;2023-02-15T03:45:17;39.03;;;11.97;;
10659;SDS011;5378;53.206;13.316;2023-02-15T03:48:10;45.77;;;12.80;;
10659;SDS011;5378;53.206;13.316;2023-02-15T03:50:58;32.67;;;12.07;;
10659;SDS011;5378;53.206;13.316;2023-02-15T03:54:08;37.43;;;13.87;;
10659;SDS011;5378;53.206;13.316;2023-02-15T03:56:56;42.33;;;13.93;;
10659;SDS011;5378;53.206;13.316;2023-02-15T03:59:59;32.50;;;11.10;;
10659;SDS011;5378;53.206;13.316;2023-02-15T04:03:08;38.37;;;12.13;;
10659;SDS011;5378;53.206;13.316;2023-02-15T04:06:05;46.13;;;10.70;;
10659;SDS011;5378;53.206;13.316;2023-02-15T04:08:52;43.60;;;13.13;;
10659;SDS011;5378;53.206;13.316;2023-02-15T04:11:58;37.67;;;12.70;;
10659;SDS011;5378;53.206;13.316;2023-02-15T04:14:45;43.88;;;11.73;;
10659;SDS011;5378;53.206;13.316;2023-02-15T04:17:51;36.07;;;12.70;;
10659;SDS011;5378;53.206;13.316;2023-02-15T04:20:38;37.20;;;13.40;;
10659;SDS011;5378;53.206;13.316;2023-02-15T04:23:42;47.03;;;11.40;;
10659;SDS011;5378;53.206;13.316;2023-02-15T04:26:47;39.87;;;12.40;;
10659;SDS011;5378;53.206;13.316;2023-02-15T04:29:38;35.00;;;12.47;;
10659;SDS011;5378;53.206;13.316;2023-02-15T04:32:25;33.00;;;11.00;;
10659;SDS011;5378;53.206;13.316;2023-02-15T04:35:14;38.30;;;12.13;;
10659;SDS011;5378;53.206;13.316;2023-02-15T04:38:01;34.90;;;10.70;;
10659;SDS011;5378;53.206;13.316;2023-02-15T04:40:49;38.03;;;14.43;;
10659;SDS011;5378;53.206;13.316;2023-02-15T04:43:37;34.57;;;12.33;;
10659;SDS011;5378;53.206;13.316;2023-02-15T04:46:24;60.47;;;11.67;;
10659;SDS011;5378;53.206;13.316;2023-02-15T04:49:12;40.83;;;13.53;;
10659;SDS011;5378;53.206;13.316;2023-02-15T04:52:00;33.67;;;11.60;;
10659;SDS011;5378;53.206;13.316;2023-02-15T04:54:48;38.37;;;11.77;;
10659;SDS011;5378;53.206;13.316;2023-02-15T04:57:34;32.87;;;12.87;;
10659;SDS011;5378;53.206;13.316;2023-02-15T05:00:21;49.60;;;14.00;;
10659;SDS011;5378;53.206;13.316;2023-02-15T05:03:08;40.60;;;13.83;;
10659;SDS011;5378;53.206;13.316;2023-02-15T05:05:56;26.70;;;10.27;;
10659;SDS011;5378;53.206;13.316;2023-02-15T05:08:44;30.43;;;10.80;;
10659;SDS011;5378;53.206;13.316;2023-02-15T05:11:31;40.47;;;11.40;;
10659;SDS011;5378;53.206;13.316;2023-02-15T05:14:18;32.63;;;12.77;;
10659;SDS011;5378;53.206;13.316;2023-02-15T05:17:06;32.33;;;11.37;;
10659;SDS011;5378;53.206;13.316;2023-02-15T05:19:53;37.23;;;11.17;;
10659;SDS011;5378;53.206;13.316;2023-02-15T05:22:40;37.53;;;12.60;;
10659;SDS011;5378;53.206;13.316;2023-02-15T05:25:29;49.77;;;13.20;;
10659;SDS011;5378;53.206;13.316;2023-02-15T05:28:42;37.65;;;9.40;;
10659;SDS011;5378;53.206;13.316;2023-02-15T05:31:29;42.43;;;13.07;;
10659;SDS011;5378;53.206;13.316;2023-02-15T05:34:17;35.07;;;11.03;;
10659;SDS011;5378;53.206;13.316;2023-02-15T05:37:04;35.83;;;12.90;;
10659;SDS011;5378;53.206;13.316;2023-02-15T05:39:53;36.33;;;10.87;;
10659;SDS011;5378;53.206;13.316;2023-02-15T05:42:41;39.00;;;11.63;;
10659;SDS011;5378;53.206;13.316;2023-02-15T05:45:28;38.80;;;10.50;;
10659;SDS011;5378;53.206;13.316;2023-02-15T05:48:15;38.03;;;12.40;;
10659;SDS011;5378;53.206;13.316;2023-02-15T05:51:04;32.27;;;10.60;;
10659;SDS011;5378;53.206;13.316;2023-02-15T05:53:52;39.83;;;13.30;;
10659;SDS011;5378;53.206;13.316;2023-02-15T05:56:39;59.87;;;20.97;;
10659;SDS011;5378;53.206;13.316;2023-02-15T05:59:28;70.80;;;21.70;;
10659;SDS011;5378;53.206;13.316;2023-02-15T06:02:15;61.23;;;20.37;;
10659;SDS011;5378;53.206;13.316;2023-02-15T06:05:02;54.00;;;17.67;;
10659;SDS011;5378;53.206;13.316;2023-02-15T06:07:49;62.27;;;19.60;;
10659;SDS011;5378;53.206;13.316;2023-02-15T06:10:36;63.47;;;21.10;;
10659;SDS011;5378;53.206;13.316;2023-02-15T06:13:25;66.63;;;22.80;;
10659;SDS011;5378;53.206;13.316;2023-02-15T06:16:13;45.47;;;15.30;;
10659;SDS011;5378;53.206;13.316;2023-02-15T06:19:01;38.55;;;14.20;;
10659;SDS011;5378;53.206;13.316;2023-02-15T06:21:49;50.10;;;15.13;;
10659;SDS011;5378;53.206;13.316;2023-02-15T06:24:36;43.30;;;10.90;;
10659;SDS011;5378;53.206;13.316;2023-02-15T06:27:23;35.63;;;10.83;;
10659;SDS011;5378;53.206;13.316;2023-02-15T06:30:11;28.30;;;10.95;;
10659;SDS011;5378;53.206;13.316;2023-02-15T06:33:00;32.55;;;11.45;;
10659;SDS011;5378;53.206;13.316;2023-02-15T06:35:48;34.70;;;10.70;;
10659;SDS011;5378;53.206;13.316;2023-02-15T06:38:35;36.17;;;11.90;;
10659;SDS011;5378;53.206;13.316;2023-02-15T06:41:22;37.65;;;9.90;;
10659;SDS011;5378;53.206;13.316;2023-02-15T06:44:10;39.57;;;11.93;;
10659;SDS011;5378;53.206;13.316;2023-02-15T06:46:57;55.15;;;15.27;;
10659;SDS011;5378;53.206;13.316;2023-02-15T06:49:45;38.15;;;13.25;;
10659;SDS011;5378;53.206;13.316;2023-02-15T06:52:33;34.00;;;12.00;;
10659;SDS011;5378;53.206;13.316;2023-02-15T06:55:20;35.28;;;10.90;;
10659;SDS011;5378;53.206;13.316;2023-02-15T06:58:07;44.70;;;11.68;;
10659;SDS011;5378;53.206;13.316;2023-02-15T07:00:55;60.97;;;18.07;;
10659;SDS011;5378;53.206;13.316;2023-02-15T07:03:42;43.30;;;14.30;;
10659;SDS011;5378;53.206;13.316;2023-02-15T07:06:31;46.50;;;14.97;;
10659;SDS011;5378;53.206;13.316;2023-02-15T07:09:19;53.80;;;16.10;;
10659;SDS011;5378;53.206;13.316;2023-02-15T07:12:06;43.43;;;13.73;;
10659;SDS011;5378;53.206;13.316;2023-02-15T07:15:12;48.70;;;14.77;;
10659;SDS011;5378;53.206;13.316;2023-02-15T07:18:01;44.83;;;12.40;;
10659;SDS011;5378;53.206;13.316;2023-02-15T07:20:50;50.13;;;14.90;;
10659;SDS011;5378;53.206;13.316;2023-02-15T07:23:39;45.03;;;15.50;;
10659;SDS011;5378;53.206;13.316;2023-02-15T07:26:26;42.83;;;14.03;;
10659;SDS011;5378;53.206;13.316;2023-02-15T07:29:13;35.77;;;14.30;;
10659;SDS011;5378;53.206;13.316;2023-02-15T07:32:01;46.30;;;12.30;;
10659;SDS011;5378;53.206;13.316;2023-02-15T07:34:48;45.40;;;13.23;;
10659;SDS011;5378;53.206;13.316;2023-02-15T07:37:35;42.23;;;12.57;;
10659;SDS011;5378;53.206;13.316;2023-02-15T07:40:24;41.80;;;12.93;;
10659;SDS011;5378;53.206;13.316;2023-02-15T07:43:11;42.17;;;14.27;;
10659;SDS011;5378;53.206;13.316;2023-02-15T07:45:59;39.80;;;13.80;;
10659;SDS011;5378;53.206;13.316;2023-02-15T07:48:47;45.70;;;13.97;;
10659;SDS011;5378;53.206;13.316;2023-02-15T07:51:34;45.33;;;14.47;;
10659;SDS011;5378;53.206;13.316;2023-02-15T07:54:21;58.33;;;17.17;;
10659;SDS011;5378;53.206;13.316;2023-02-15T07:57:09;56.10;;;16.37;;
10659;SDS011;5378;53.206;13.316;2023-02-15T07:59:56;53.67;;;16.83;;
10659;SDS011;5378;53.206;13.316;2023-02-15T08:02:47;50.50;;;17.33;;
10659;SDS011;5378;53.206;13.316;2023-02-15T08:05:34;54.20;;;17.37;;
10659;SDS011;5378;53.206;13.316;2023-02-15T08:08:21;47.33;;;15.53;;
10659;SDS011;5378;53.206;13.316;2023-02-15T08:11:18;57.87;;;15.47;;
10659;SDS011;5378;53.206;13.316;2023-02-15T08:14:16;49.40;;;14.30;;
10659;SDS011;5378;53.206;13.316;2023-02-15T08:17:05;52.33;;;17.50;;
10659;SDS011;5378;53.206;13.316;2023-02-15T08:19:52;68.63;;;18.57;;
10659;SDS011;5378;53.206;13.316;2023-02-15T08:22:39;60.90;;;17.00;;
10659;SDS011;5378;53.206;13.316;2023-02-15T08:25:27;56.27;;;16.33;;
10659;SDS011;5378;53.206;13.316;2023-02-15T08:28:14;45.07;;;16.23;;
10659;SDS011;5378;53.206;13.316;2023-02-15T08:31:06;41.30;;;16.50;;
10659;SDS011;5378;53.206;13.316;2023-02-15T08:33:54;75.50;;;16.77;;
10659;SDS011;5378;53.206;13.316;2023-02-15T08:36:42;47.80;;;15.13;;
10659;SDS011;5378;53.206;13.316;2023-02-15T08:39:31;60.00;;;16.27;;
10659;SDS011;5378;53.206;13.316;2023-02-15T08:42:18;54.47;;;17.20;;
10659;SDS011;5378;53.206;13.316;2023-02-15T08:45:06;49.53;;;15.27;;
10659;SDS011;5378;53.206;13.316;2023-02-15T08:47:55;46.50;;;14.57;;
10659;SDS011;5378;53.206;13.316;2023-02-15T08:50:42;63.37;;;17.13;;
10659;SDS011;5378;53.206;13.316;2023-02-15T08:53:30;64.83;;;14.50;;
10659;SDS011;5378;53.206;13.316;2023-02-15T08:56:18;54.67;;;15.13;;
10659;SDS011;5378;53.206;13.316;2023-02-15T08:59:07;48.57;;;14.47;;
10659;SDS011;5378;53.206;13.316;2023-02-15T09:01:58;48.73;;;16.93;;
10659;SDS011;5378;53.206;13.316;2023-02-15T09:04:46;60.63;;;17.27;;
10659;SDS011;5378;53.206;13.316;2023-02-15T09:07:33;46.43;;;15.13;;
10659;SDS011;5378;53.206;13.316;2023-02-15T09:10:21;67.63;;;15.77;;
10659;SDS011;5378;53.206;13.316;2023-02-15T09:13:08;65.10;;;18.27;;
10659;SDS011;5378;53.206;13.316;2023-02-15T09:15:58;58.47;;;15.70;;
10659;SDS011;5378;53.206;13.316;2023-02-15T09:18:45;45.23;;;16.10;;
10659;SDS011;5378;53.206;13.316;2023-02-15T09:21:36;60.50;;;17.07;;
10659;SDS011;5378;53.206;13.316;2023-02-15T09:24:24;66.83;;;17.50;;
10659;SDS011;5378;53.206;13.316;2023-02-15T09:27:11;84.80;;;19.87;;
10659;SDS011;5378;53.206;13.316;2023-02-15T09:29:59;57.77;;;18.40;;
10659;SDS011;5378;53.206;13.316;2023-02-15T09:32:47;61.13;;;17.00;;
10659;SDS011;5378;53.206;13.316;2023-02-15T09:35:34;59.07;;;19.47;;
10659;SDS011;5378;53.206;13.316;2023-02-15T09:38:22;67.37;;;18.37;;
10659;SDS011;5378;53.206;13.316;2023-02-15T09:41:16;37.97;;;13.60;;
10659;SDS011;5378;53.206;13.316;2023-02-15T09:44:20;76.10;;;19.17;;
10659;SDS011;5378;53.206;13.316;2023-02-15T09:47:27;48.73;;;16.77;;
10659;SDS011;5378;53.206;13.316;2023-02-15T09:50:28;44.83;;;16.20;;
10659;SDS011;5378;53.206;13.316;2023-02-15T09:53:28;62.37;;;17.30;;
10659;SDS011;5378;53.206;13.316;2023-02-15T09:56:24;64.73;;;17.43;;
10659;SDS011;5378;53.206;13.316;2023-02-15T09:59:19;50.43;;;16.20;;
10659;SDS011;5378;53.206;13.316;2023-02-15T10:02:24;49.53;;;16.00;;
10659;SDS011;5378;53.206;13.316;2023-02-15T10:05:26;68.60;;;19.60;;
10659;SDS011;5378;53.206;13.316;2023-02-15T10:08:25;51.27;;;15.33;;
10659;SDS011;5378;53.206;13.316;2023-02-15T10:11:35;45.00;;;16.00;;
10659;SDS011;5378;53.206;13.316;2023-02-15T10:14:42;47.80;;;17.07;;
10659;SDS011;5378;53.206;13.316;2023-02-15T10:17:45;38.30;;;14.70;;
10659;SDS011;5378;53.206;13.316;2023-02-15T10:20:49;45.77;;;15.27;;
10659;SDS011;5378;53.206;13.316;2023-02-15T10:23:50;49.43;;;15.83;;
10659;SDS011;5378;53.206;13.316;2023-02-15T10:26:49;41.13;;;15.23;;
10659;SDS011;5378;53.206;13.316;2023-02-15T10:29:36;39.00;;;15.57;;
10659;SDS011;5378;53.206;13.316;2023-02-15T10:32:25;47.60;;;16.30;;
10659;SDS011;5378;53.206;13.316;2023-02-15T10:35:15;44.90;;;17.73;;
10659;SDS011;5378;53.206;13.316;2023-02-15T10:38:11;40.97;;;17.20;;
10659;SDS011;5378;53.206;13.316;2023-02-15T10:41:12;46.50;;;15.80;;
10659;SDS011;5378;53.206;13.316;2023-02-15T10:44:15;55.07;;;18.90;;
10659;SDS011;5378;53.206;13.316;2023-02-15T10:47:18;48.00;;;16.60;;
10659;SDS011;5378;53.206;13.316;2023-02-15T10:50:24;46.10;;;16.80;;
10659;SDS011;5378;53.206;13.316;2023-02-15T10:53:36;37.47;;;15.40;;
10659;SDS011;5378;53.206;13.316;2023-02-15T10:56:36;44.40;;;17.87;;
10659;SDS011;5378;53.206;13.316;2023-02-15T10:59:36;49.30;;;17.00;;
10659;SDS011;5378;53.206;13.316;2023-02-15T11:02:39;44.27;;;17.40;;
10659;SDS011;5378;53.206;13.316;2023-02-15T11:05:43;43.80;;;15.80;;
10659;SDS011;5378;53.206;13.316;2023-02-15T11:08:48;43.50;;;15.53;;
10659;SDS011;5378;53.206;13.316;2023-02-15T11:11:39;49.10;;;17.27;;
10659;SDS011;5378;53.206;13.316;2023-02-15T11:14:31;57.53;;;16.80;;
10659;SDS011;5378;53.206;13.316;2023-02-15T11:17:25;48.03;;;15.43;;
10659;SDS011;5378;53.206;13.316;2023-02-15T11:20:18;44.07;;;15.17;;
10659;SDS011;5378;53.206;13.316;2023-02-15T11:23:12;52.77;;;18.47;;
10659;SDS011;5378;53.206;13.316;2023-02-15T11:26:02;45.97;;;16.93;;
10659;SDS011;5378;53.206;13.316;2023-02-15T11:28:52;55.90;;;19.13;;
10659;SDS011;5378;53.206;13.316;2023-02-15T11:31:44;52.13;;;17.10;;
10659;SDS011;5378;53.206;13.316;2023-02-15T11:34:35;59.13;;;18.13;;
10659;SDS011;5378;53.206;13.316;2023-02-15T11:37:27;40.50;;;16.37;;
10659;SDS011;5378;53.206;13.316;2023-02-15T11:40:20;41.20;;;16.47;;
10659;SDS011;5378;53.206;13.316;2023-02-15T11:43:12;46.37;;;17.27;;
10659;SDS011;5378;53.206;13.316;2023-02-15T11:46:05;55.30;;;18.27;;
10659;SDS011;5378;53.206;13.316;2023-02-15T11:48:56;51.67;;;16.90;;
10659;SDS011;5378;53.206;13.316;2023-02-15T11:51:45;45.37;;;14.90;;
10659;SDS011;5378;53.206;13.316;2023-02-15T11:54:32;48.40;;;16.30;;
10659;SDS011;5378;53.206;13.316;2023-02-15T11:57:23;56.17;;;17.70;;
10659;SDS011;5378;53.206;13.316;2023-02-15T12:00:16;44.90;;;15.20;;
10659;SDS011;5378;53.206;13.316;2023-02-15T12:03:18;47.80;;;18.60;;
10659;SDS011;5378;53.206;13.316;2023-02-15T12:06:18;41.53;;;15.67;;
10659;SDS011;5378;53.206;13.316;2023-02-15T12:09:17;48.20;;;15.80;;
10659;SDS011;5378;53.206;13.316;2023-02-15T12:12:19;40.90;;;15.80;;
10659;SDS011;5378;53.206;13.316;2023-02-15T12:15:09;50.20;;;15.67;;
10659;SDS011;5378;53.206;13.316;2023-02-15T12:17:57;53.50;;;19.07;;
10659;SDS011;5378;53.206;13.316;2023-02-15T12:20:45;45.90;;;15.87;;
10659;SDS011;5378;53.206;13.316;2023-02-15T12:23:33;37.87;;;14.80;;
10659;SDS011;5378;53.206;13.316;2023-02-15T12:26:26;39.57;;;15.87;;
10659;SDS011;5378;53.206;13.316;2023-02-15T12:29:15;52.27;;;17.10;;
10659;SDS011;5378;53.206;13.316;2023-02-15T12:32:04;48.13;;;17.23;;
10659;SDS011;5378;53.206;13.316;2023-02-15T12:34:53;54.43;;;19.50;;
10659;SDS011;5378;53.206;13.316;2023-02-15T12:37:52;49.17;;;16.37;;
10659;SDS011;5378;53.206;13.316;2023-02-15T12:40:41;41.53;;;16.30;;
10659;SDS011;5378;53.206;13.316;2023-02-15T12:43:42;50.50;;;16.70;;
10659;SDS011;5378;53.206;13.316;2023-02-15T12:46:30;42.83;;;15.00;;
10659;SDS011;5378;53.206;13.316;2023-02-15T12:49:22;54.60;;;16.90;;
10659;SDS011;5378;53.206;13.316;2023-02-15T12:52:23;52.27;;;18.17;;
10659;SDS011;5378;53.206;13.316;2023-02-15T12:55:19;47.37;;;17.67;;
10659;SDS011;5378;53.206;13.316;2023-02-15T12:58:14;43.90;;;16.53;;
10659;SDS011;5378;53.206;13.316;2023-02-15T13:01:09;47.13;;;17.27;;
10659;SDS011;5378;53.206;13.316;2023-02-15T13:03:58;44.10;;;15.97;;
10659;SDS011;5378;53.206;13.316;2023-02-15T13:06:48;46.70;;;17.17;;
10659;SDS011;5378;53.206;13.316;2023-02-15T13:09:38;48.80;;;17.23;;
10659;SDS011;5378;53.206;13.316;2023-02-15T13:12:28;48.57;;;16.50;;
10659;SDS011;5378;53.206;13.316;2023-02-15T13:15:23;44.50;;;16.87;;
10659;SDS011;5378;53.206;13.316;2023-02-15T13:18:15;54.17;;;17.13;;
10659;SDS011;5378;53.206;13.316;2023-02-15T13:21:09;55.53;;;18.60;;
10659;SDS011;5378;53.206;13.316;2023-02-15T13:23:59;50.43;;;18.27;;
10659;SDS011;5378;53.206;13.316;2023-02-15T13:26:49;49.93;;;15.97;;
10659;SDS011;5378;53.206;13.316;2023-02-15T13:29:38;54.90;;;17.70;;
10659;SDS011;5378;53.206;13.316;2023-02-15T13:32:28;45.77;;;19.37;;
10659;SDS011;5378;53.206;13.316;2023-02-15T13:35:17;57.70;;;17.80;;
10659;SDS011;5378;53.206;13.316;2023-02-15T13:38:08;49.50;;;19.13;;
10659;SDS011;5378;53.206;13.316;2023-02-15T13:41:20;47.73;;;16.53;;
10659;SDS011;5378;53.206;13.316;2023-02-15T13:44:12;42.07;;;15.33;;
10659;SDS011;5378;53.206;13.316;2023-02-15T13:47:12;38.70;;;13.40;;
10659;SDS011;5378;53.206;13.316;2023-02-15T13:50:16;45.40;;;15.23;;
10659;SDS011;5378;53.206;13.316;2023-02-15T13:53:20;49.23;;;16.80;;
10659;SDS011;5378;53.206;13.316;2023-02-15T13:56:30;45.57;;;15.30;;
10659;SDS011;5378;53.206;13.316;2023-02-15T13:59:29;43.70;;;13.90;;
10659;SDS011;5378;53.206;13.316;2023-02-15T14:02:37;46.27;;;16.87;;
10659;SDS011;5378;53.206;13.316;2023-02-15T14:05:37;43.63;;;16.70;;
10659;SDS011;5378;53.206;13.316;2023-02-15T14:08:39;48.93;;;17.77;;
10659;SDS011;5378;53.206;13.316;2023-02-15T14:11:42;47.33;;;18.57;;
10659;SDS011;5378;53.206;13.316;2023-02-15T14:14:43;48.47;;;17.73;;
10659;SDS011;5378;53.206;13.316;2023-02-15T14:17:50;53.73;;;17.60;;
10659;SDS011;5378;53.206;13.316;2023-02-15T14:20:47;49.37;;;17.87;;
10659;SDS011;5378;53.206;13.316;2023-02-15T14:23:43;52.10;;;19.20;;
10659;SDS011;5378;53.206;13.316;2023-02-15T14:26:45;41.80;;;14.90;;
10659;SDS011;5378;53.206;13.316;2023-02-15T14:29:41;50.27;;;16.70;;
10659;SDS011;5378;53.206;13.316;2023-02-15T14:32:36;50.57;;;19.47;;
10659;SDS011;5378;53.206;13.316;2023-02-15T14:35:29;45.07;;;17.77;;
10659;SDS011;5378;53.206;13.316;2023-02-15T14:38:19;52.37;;;17.90;;
10659;SDS011;5378;53.206;13.316;2023-02-15T14:41:17;50.63;;;16.97;;
10659;SDS011;5378;53.206;13.316;2023-02-15T14:44:10;53.93;;;16.27;;
10659;SDS011;5378;53.206;13.316;2023-02-15T14:47:04;43.93;;;15.37;;
10659;SDS011;5378;53.206;13.316;2023-02-15T14:49:56;47.00;;;16.63;;
10659;SDS011;5378;53.206;13.316;2023-02-15T14:56:14;67.20;;;17.50;;
10659;SDS011;5378;53.206;13.316;2023-02-15T14:59:13;53.80;;;16.33;;
10659;SDS011;5378;53.206;13.316;2023-02-15T15:02:04;123.20;;;35.43;;
10659;SDS011;5378;53.206;13.316;2023-02-15T15:05:01;256.80;;;64.40;;
10659;SDS011;5378;53.206;13.316;2023-02-15T15:07:53;185.37;;;51.00;;
10659;SDS011;5378;53.206;13.316;2023-02-15T15:10:43;112.90;;;32.93;;
10659;SDS011;5378;53.206;13.316;2023-02-15T15:13:38;73.47;;;22.40;;
10659;SDS011;5378;53.206;13.316;2023-02-15T15:16:50;74.90;;;23.33;;
10659;SDS011;5378;53.206;13.316;2023-02-15T15:23:04;60.80;;;21.13;;
10659;SDS011;5378;53.206;13.316;2023-02-15T15:26:28;64.50;;;20.40;;
10659;SDS011;5378;53.206;13.316;2023-02-15T15:29:29;56.53;;;17.30;;
10659;SDS011;5378;53.206;13.316;2023-02-15T15:32:26;51.47;;;18.63;;
10659;SDS011;5378;53.206;13.316;2023-02-15T15:35:17;73.13;;;23.27;;
10659;SDS011;5378;53.206;13.316;2023-02-15T15:38:22;62.27;;;19.50;;
10659;SDS011;5378;53.206;13.316;2023-02-15T15:41:23;60.33;;;20.70;;
10659;SDS011;5378;53.206;13.316;2023-02-15T15:48:19;73.60;;;19.90;;
10659;SDS011;5378;53.206;13.316;2023-02-15T15:51:17;69.40;;;20.47;;
10659;SDS011;5378;53.206;13.316;2023-02-15T15:54:11;61.00;;;21.00;;
10659;SDS011;5378;53.206;13.316;2023-02-15T15:57:02;56.17;;;18.23;;
10659;SDS011;5378;53.206;13.316;2023-02-15T15:59:52;70.70;;;20.23;;
10659;SDS011;5378;53.206;13.316;2023-02-15T16:02:50;77.47;;;23.00;;
10659;SDS011;5378;53.206;13.316;2023-02-15T16:05:38;69.17;;;20.37;;
10659;SDS011;5378;53.206;13.316;2023-02-15T16:08:26;75.97;;;20.10;;
10659;SDS011;5378;53.206;13.316;2023-02-15T16:11:16;73.17;;;21.60;;
10659;SDS011;5378;53.206;13.316;2023-02-15T16:14:10;79.17;;;21.33;;
10659;SDS011;5378;53.206;13.316;2023-02-15T16:17:03;77.80;;;24.53;;
10659;SDS011;5378;53.206;13.316;2023-02-15T16:19:54;73.97;;;22.20;;
10659;SDS011;5378;53.206;13.316;2023-02-15T16:22:46;79.73;;;25.33;;
10659;SDS011;5378;53.206;13.316;2023-02-15T16:25:40;77.47;;;21.63;;
10659;SDS011;5378;53.206;13.316;2023-02-15T16:28:34;80.57;;;22.00;;
10659;SDS011;5378;53.206;13.316;2023-02-15T16:31:21;128.63;;;36.87;;
10659;SDS011;5378;53.206;13.316;2023-02-15T16:34:09;91.53;;;30.57;;
10659;SDS011;5378;53.206;13.316;2023-02-15T16:37:14;101.97;;;29.50;;
10659;SDS011;5378;53.206;13.316;2023-02-15T16:40:02;127.83;;;49.70;;
10659;SDS011;5378;53.206;13.316;2023-02-15T16:42:50;87.97;;;30.30;;
10659;SDS011;5378;53.206;13.316;2023-02-15T16:45:38;92.57;;;29.23;;
10659;SDS011;5378;53.206;13.316;2023-02-15T16:48:25;99.77;;;34.73;;
10659;SDS011;5378;53.206;13.316;2023-02-15T16:51:17;71.03;;;26.83;;
10659;SDS011;5378;53.206;13.316;2023-02-15T16:54:08;99.00;;;37.33;;
10659;SDS011;5378;53.206;13.316;2023-02-15T16:57:05;128.20;;;49.67;;
10659;SDS011;5378;53.206;13.316;2023-02-15T17:00:02;104.37;;;32.43;;
10659;SDS011;5378;53.206;13.316;2023-02-15T17:02:55;105.37;;;39.00;;